sensor_id;sensor_type;location;lat;lon;timestamp;P1;durP1;ratioP1;P2;durP2;ratioP2
63406;SDS011;49543;45.892;10.838;2022-07-03T09:28:50;6.45;;;4.85;;
63406;SDS011;49543;45.892;10.838;2022-07-03T09:31:18;7.47;;;4.85;;
63406;SDS011;49543;45.892;10.838;2022-07-03T09:34:07;6.07;;;4.72;;
63406;SDS011;49543;45.892;10.838;2022-07-03T09:36:45;4.40;;;3.97;;
63406;SDS011;49543;45.892;10.838;2022-07-03T09:39:16;7.13;;;4.32;;
63406;SDS011;49543;45.892;10.838;2022-07-03T09:52:33;7.50;;;4.43;;
63406;SDS011;49543;45.892;10.838;2022-07-03T09:57:35;7.93;;;4.97;;
63406;SDS011;49543;45.892;10.838;2022-07-03T10:03:00;6.07;;;5.15;;
63406;SDS011;49543;45.892;10.838;2022-07-03T10:07:54;7.47;;;5.57;;
63406;SDS011;49543;45.892;10.838;2022-07-03T10:10:47;7.22;;;6.50;;
63406;SDS011;49543;45.892;10.838;2022-07-03T10:13:14;7.93;;;6.70;;
63406;SDS011;49543;45.892;10.838;2022-07-03T10:15:40;6.85;;;6.10;;
63406;SDS011;49543;45.892;10.838;2022-07-03T10:18:11;6.68;;;5.40;;
63406;SDS011;49543;45.892;10.838;2022-07-03T10:20:38;8.30;;;6.00;;
63406;SDS011;49543;45.892;10.838;2022-07-03T10:23:11;10.50;;;5.80;;
63406;SDS011;49543;45.892;10.838;2022-07-03T10:25:40;9.82;;;5.10;;
63406;SDS011;49543;45.892;10.838;2022-07-03T10:28:06;9.73;;;5.20;;
63406;SDS011;49543;45.892;10.838;2022-07-03T10:30:32;5.80;;;5.18;;
63406;SDS011;49543;45.892;10.838;2022-07-03T10:32:58;7.13;;;4.85;;
63406;SDS011;49543;45.892;10.838;2022-07-03T10:35:33;10.00;;;5.47;;
63406;SDS011;49543;45.892;10.838;2022-07-03T10:43:45;8.35;;;6.18;;
63406;SDS011;49543;45.892;10.838;2022-07-03T10:46:30;7.45;;;6.15;;
63406;SDS011;49543;45.892;10.838;2022-07-03T11:05:15;12.93;;;6.07;;
63406;SDS011;49543;45.892;10.838;2022-07-03T11:20:33;6.25;;;3.83;;
63406;SDS011;49543;45.892;10.838;2022-07-03T11:39:03;9.00;;;5.40;;
63406;SDS011;49543;45.892;10.838;2022-07-03T11:44:02;6.05;;;4.75;;
63406;SDS011;49543;45.892;10.838;2022-07-03T11:46:29;9.55;;;5.00;;
63406;SDS011;49543;45.892;10.838;2022-07-03T11:49:12;8.27;;;5.00;;
63406;SDS011;49543;45.892;10.838;2022-07-03T11:51:43;9.00;;;4.70;;
63406;SDS011;49543;45.892;10.838;2022-07-03T11:54:18;7.63;;;4.65;;
63406;SDS011;49543;45.892;10.838;2022-07-03T11:56:44;10.27;;;4.65;;
63406;SDS011;49543;45.892;10.838;2022-07-03T11:59:09;4.70;;;4.20;;
63406;SDS011;49543;45.892;10.838;2022-07-03T12:01:35;7.47;;;5.35;;
63406;SDS011;49543;45.892;10.838;2022-07-03T12:04:09;6.65;;;4.60;;
63406;SDS011;49543;45.892;10.838;2022-07-03T12:06:51;7.07;;;4.63;;
63406;SDS011;49543;45.892;10.838;2022-07-03T12:14:36;10.35;;;5.10;;
63406;SDS011;49543;45.892;10.838;2022-07-03T12:17:09;12.80;;;4.90;;
63406;SDS011;49543;45.892;10.838;2022-07-03T12:19:37;6.50;;;4.57;;
63406;SDS011;49543;45.892;10.838;2022-07-03T12:22:03;8.48;;;4.38;;
63406;SDS011;49543;45.892;10.838;2022-07-03T12:24:30;6.50;;;3.90;;
63406;SDS011;49543;45.892;10.838;2022-07-03T12:26:55;7.03;;;3.95;;
63406;SDS011;49543;45.892;10.838;2022-07-03T12:29:20;4.72;;;3.88;;
63406;SDS011;49543;45.892;10.838;2022-07-03T12:31:46;7.35;;;4.65;;
63406;SDS011;49543;45.892;10.838;2022-07-03T12:34:14;7.47;;;4.78;;
63406;SDS011;49543;45.892;10.838;2022-07-03T12:36:40;6.68;;;5.10;;
63406;SDS011;49543;45.892;10.838;2022-07-03T12:39:19;6.00;;;4.20;;
63406;SDS011;49543;45.892;10.838;2022-07-03T12:41:44;8.93;;;5.55;;
63406;SDS011;49543;45.892;10.838;2022-07-03T12:44:10;6.10;;;4.63;;
63406;SDS011;49543;45.892;10.838;2022-07-03T12:46:35;6.30;;;4.57;;
63406;SDS011;49543;45.892;10.838;2022-07-03T12:49:10;6.65;;;4.35;;
63406;SDS011;49543;45.892;10.838;2022-07-03T12:51:46;7.65;;;4.45;;
63406;SDS011;49543;45.892;10.838;2022-07-03T12:56:46;7.70;;;4.60;;
63406;SDS011;49543;45.892;10.838;2022-07-03T13:02:28;9.68;;;5.30;;
63406;SDS011;49543;45.892;10.838;2022-07-03T13:04:54;7.53;;;5.50;;
63406;SDS011;49543;45.892;10.838;2022-07-03T13:07:19;8.65;;;5.68;;
63406;SDS011;49543;45.892;10.838;2022-07-03T13:09:51;6.90;;;5.50;;
63406;SDS011;49543;45.892;10.838;2022-07-03T13:12:21;7.15;;;5.38;;
63406;SDS011;49543;45.892;10.838;2022-07-03T13:14:59;6.65;;;5.18;;
63406;SDS011;49543;45.892;10.838;2022-07-03T13:20:22;7.78;;;5.85;;
63406;SDS011;49543;45.892;10.838;2022-07-03T13:22:53;7.50;;;5.40;;
63406;SDS011;49543;45.892;10.838;2022-07-03T13:25:20;8.13;;;5.57;;
63406;SDS011;49543;45.892;10.838;2022-07-03T13:27:46;8.75;;;5.70;;
63406;SDS011;49543;45.892;10.838;2022-07-03T13:30:12;7.93;;;5.57;;
63406;SDS011;49543;45.892;10.838;2022-07-03T13:32:42;5.43;;;4.63;;
63406;SDS011;49543;45.892;10.838;2022-07-03T13:35:07;9.90;;;5.82;;
63406;SDS011;49543;45.892;10.838;2022-07-03T13:37:33;10.35;;;5.80;;
63406;SDS011;49543;45.892;10.838;2022-07-03T13:40:00;5.35;;;4.85;;
63406;SDS011;49543;45.892;10.838;2022-07-03T13:42:26;5.60;;;4.93;;
63406;SDS011;49543;45.892;10.838;2022-07-03T13:44:51;6.32;;;4.93;;
63406;SDS011;49543;45.892;10.838;2022-07-03T13:47:17;6.85;;;5.45;;
63406;SDS011;49543;45.892;10.838;2022-07-03T13:49:43;5.18;;;4.68;;
63406;SDS011;49543;45.892;10.838;2022-07-03T13:52:08;5.57;;;5.07;;
63406;SDS011;49543;45.892;10.838;2022-07-03T13:54:34;7.82;;;4.90;;
63406;SDS011;49543;45.892;10.838;2022-07-03T13:57:00;5.70;;;4.80;;
63406;SDS011;49543;45.892;10.838;2022-07-03T13:59:26;6.90;;;5.15;;
63406;SDS011;49543;45.892;10.838;2022-07-03T14:01:51;5.78;;;4.50;;
63406;SDS011;49543;45.892;10.838;2022-07-03T14:04:17;10.88;;;6.00;;
63406;SDS011;49543;45.892;10.838;2022-07-03T14:06:42;8.70;;;6.03;;
63406;SDS011;49543;45.892;10.838;2022-07-03T14:09:08;6.45;;;5.85;;
63406;SDS011;49543;45.892;10.838;2022-07-03T14:11:33;6.78;;;5.70;;
63406;SDS011;49543;45.892;10.838;2022-07-03T14:13:58;5.55;;;5.05;;
63406;SDS011;49543;45.892;10.838;2022-07-03T14:16:24;6.03;;;5.32;;
63406;SDS011;49543;45.892;10.838;2022-07-03T14:18:49;10.90;;;6.82;;
63406;SDS011;49543;45.892;10.838;2022-07-03T14:21:15;6.35;;;5.75;;
63406;SDS011;49543;45.892;10.838;2022-07-03T14:23:40;10.02;;;6.88;;
63406;SDS011;49543;45.892;10.838;2022-07-03T14:26:05;9.98;;;6.88;;
63406;SDS011;49543;45.892;10.838;2022-07-03T14:28:31;8.10;;;6.53;;
63406;SDS011;49543;45.892;10.838;2022-07-03T14:31:15;7.82;;;5.90;;
63406;SDS011;49543;45.892;10.838;2022-07-03T14:34:01;9.05;;;6.00;;
63406;SDS011;49543;45.892;10.838;2022-07-03T14:36:27;7.60;;;5.63;;
63406;SDS011;49543;45.892;10.838;2022-07-03T14:38:52;5.88;;;5.10;;
63406;SDS011;49543;45.892;10.838;2022-07-03T14:41:18;7.13;;;5.45;;
63406;SDS011;49543;45.892;10.838;2022-07-03T14:43:43;7.82;;;5.30;;
63406;SDS011;49543;45.892;10.838;2022-07-03T14:46:09;7.90;;;5.88;;
63406;SDS011;49543;45.892;10.838;2022-07-03T14:48:34;6.28;;;5.63;;
63406;SDS011;49543;45.892;10.838;2022-07-03T14:51:00;10.85;;;6.20;;
63406;SDS011;49543;45.892;10.838;2022-07-03T14:53:25;5.72;;;5.22;;
63406;SDS011;49543;45.892;10.838;2022-07-03T14:55:50;7.10;;;5.78;;
63406;SDS011;49543;45.892;10.838;2022-07-03T14:58:18;6.50;;;5.35;;
63406;SDS011;49543;45.892;10.838;2022-07-03T15:00:51;7.40;;;5.40;;
63406;SDS011;49543;45.892;10.838;2022-07-03T15:03:31;6.20;;;5.13;;
63406;SDS011;49543;45.892;10.838;2022-07-03T15:06:02;10.55;;;5.93;;
63406;SDS011;49543;45.892;10.838;2022-07-03T15:11:02;6.78;;;6.18;;
63406;SDS011;49543;45.892;10.838;2022-07-03T15:13:33;9.65;;;6.20;;
63406;SDS011;49543;45.892;10.838;2022-07-03T15:15:59;8.48;;;6.30;;
63406;SDS011;49543;45.892;10.838;2022-07-03T15:18:25;7.10;;;5.22;;
63406;SDS011;49543;45.892;10.838;2022-07-03T15:20:53;5.65;;;5.15;;
63406;SDS011;49543;45.892;10.838;2022-07-03T15:23:19;6.90;;;5.80;;
63406;SDS011;49543;45.892;10.838;2022-07-03T15:25:46;5.90;;;5.35;;
63406;SDS011;49543;45.892;10.838;2022-07-03T15:28:13;6.55;;;5.68;;
63406;SDS011;49543;45.892;10.838;2022-07-03T15:30:45;7.40;;;5.73;;
63406;SDS011;49543;45.892;10.838;2022-07-03T15:33:13;6.28;;;5.53;;
63406;SDS011;49543;45.892;10.838;2022-07-03T15:35:39;7.88;;;5.95;;
63406;SDS011;49543;45.892;10.838;2022-07-03T15:38:13;7.30;;;6.07;;
63406;SDS011;49543;45.892;10.838;2022-07-03T15:40:55;9.25;;;5.90;;
63406;SDS011;49543;45.892;10.838;2022-07-03T17:17:15;6.20;;;5.35;;
63406;SDS011;49543;45.892;10.838;2022-07-03T17:19:55;5.78;;;4.97;;
63406;SDS011;49543;45.892;10.838;2022-07-03T17:22:25;5.20;;;4.80;;
63406;SDS011;49543;45.892;10.838;2022-07-03T17:24:53;4.93;;;4.18;;
63406;SDS011;49543;45.892;10.838;2022-07-03T17:27:22;4.57;;;4.15;;
63406;SDS011;49543;45.892;10.838;2022-07-03T17:29:57;5.75;;;3.78;;
63406;SDS011;49543;45.892;10.838;2022-07-03T17:32:28;4.80;;;4.30;;
63406;SDS011;49543;45.892;10.838;2022-07-03T17:34:59;4.93;;;4.53;;
63406;SDS011;49543;45.892;10.838;2022-07-03T17:37:27;5.05;;;3.85;;
63406;SDS011;49543;45.892;10.838;2022-07-03T17:39:56;4.07;;;3.78;;
63406;SDS011;49543;45.892;10.838;2022-07-03T17:42:22;4.10;;;3.80;;
63406;SDS011;49543;45.892;10.838;2022-07-03T17:44:49;4.05;;;3.70;;
63406;SDS011;49543;45.892;10.838;2022-07-03T17:47:14;4.50;;;3.58;;
63406;SDS011;49543;45.892;10.838;2022-07-03T17:49:41;5.38;;;3.85;;
63406;SDS011;49543;45.892;10.838;2022-07-03T17:52:13;4.88;;;4.47;;
63406;SDS011;49543;45.892;10.838;2022-07-03T17:54:43;4.15;;;3.85;;
63406;SDS011;49543;45.892;10.838;2022-07-03T17:57:13;5.05;;;4.20;;
63406;SDS011;49543;45.892;10.838;2022-07-03T17:59:58;3.67;;;3.40;;
63406;SDS011;49543;45.892;10.838;2022-07-03T18:02:25;3.63;;;3.30;;
63406;SDS011;49543;45.892;10.838;2022-07-03T18:04:52;4.55;;;4.10;;
63406;SDS011;49543;45.892;10.838;2022-07-03T18:07:20;4.13;;;3.70;;
63406;SDS011;49543;45.892;10.838;2022-07-03T18:09:50;4.15;;;3.65;;
63406;SDS011;49543;45.892;10.838;2022-07-03T18:12:22;4.00;;;3.70;;
63406;SDS011;49543;45.892;10.838;2022-07-03T18:14:55;3.92;;;3.60;;
63406;SDS011;49543;45.892;10.838;2022-07-03T18:17:27;4.05;;;3.60;;
63406;SDS011;49543;45.892;10.838;2022-07-03T18:19:56;4.35;;;3.95;;
63406;SDS011;49543;45.892;10.838;2022-07-03T18:22:26;5.28;;;4.07;;
63406;SDS011;49543;45.892;10.838;2022-07-03T18:24:53;4.00;;;3.60;;
63406;SDS011;49543;45.892;10.838;2022-07-03T18:27:22;4.63;;;4.07;;
63406;SDS011;49543;45.892;10.838;2022-07-03T18:29:48;4.65;;;3.67;;
63406;SDS011;49543;45.892;10.838;2022-07-03T18:32:17;4.40;;;4.10;;
63406;SDS011;49543;45.892;10.838;2022-07-03T18:34:43;4.20;;;3.85;;
63406;SDS011;49543;45.892;10.838;2022-07-03T18:37:12;4.15;;;3.75;;
63406;SDS011;49543;45.892;10.838;2022-07-03T18:39:37;4.47;;;3.35;;
63406;SDS011;49543;45.892;10.838;2022-07-03T18:42:03;3.95;;;3.65;;
63406;SDS011;49543;45.892;10.838;2022-07-03T18:44:30;5.13;;;4.03;;
63406;SDS011;49543;45.892;10.838;2022-07-03T18:46:57;3.88;;;3.58;;
63406;SDS011;49543;45.892;10.838;2022-07-03T18:49:22;3.97;;;3.50;;
63406;SDS011;49543;45.892;10.838;2022-07-03T18:51:49;4.45;;;4.05;;
63406;SDS011;49543;45.892;10.838;2022-07-03T18:54:30;5.82;;;4.43;;
63406;SDS011;49543;45.892;10.838;2022-07-03T18:59:39;4.20;;;3.83;;
63406;SDS011;49543;45.892;10.838;2022-07-03T19:02:25;4.10;;;3.80;;
63406;SDS011;49543;45.892;10.838;2022-07-03T19:04:53;4.75;;;4.18;;
63406;SDS011;49543;45.892;10.838;2022-07-03T19:07:30;4.47;;;4.07;;
63406;SDS011;49543;45.892;10.838;2022-07-03T19:10:04;4.90;;;3.80;;
63406;SDS011;49543;45.892;10.838;2022-07-03T19:12:37;4.00;;;3.70;;
63406;SDS011;49543;45.892;10.838;2022-07-03T19:15:04;4.45;;;4.00;;
63406;SDS011;49543;45.892;10.838;2022-07-03T19:17:31;4.40;;;4.00;;
63406;SDS011;49543;45.892;10.838;2022-07-03T19:19:58;4.82;;;4.32;;
63406;SDS011;49543;45.892;10.838;2022-07-03T19:22:24;5.47;;;4.20;;
63406;SDS011;49543;45.892;10.838;2022-07-03T19:24:49;4.22;;;3.55;;
63406;SDS011;49543;45.892;10.838;2022-07-03T19:27:15;4.47;;;3.85;;
63406;SDS011;49543;45.892;10.838;2022-07-03T19:29:41;4.72;;;4.32;;
63406;SDS011;49543;45.892;10.838;2022-07-03T19:32:07;6.97;;;4.55;;
63406;SDS011;49543;45.892;10.838;2022-07-03T19:34:33;5.20;;;4.22;;
63406;SDS011;49543;45.892;10.838;2022-07-03T19:36:59;4.40;;;4.03;;
63406;SDS011;49543;45.892;10.838;2022-07-03T19:39:26;4.95;;;4.45;;
63406;SDS011;49543;45.892;10.838;2022-07-03T19:41:51;7.15;;;4.40;;
63406;SDS011;49543;45.892;10.838;2022-07-03T19:44:17;5.65;;;4.70;;
63406;SDS011;49543;45.892;10.838;2022-07-03T19:46:42;4.35;;;4.05;;
63406;SDS011;49543;45.892;10.838;2022-07-03T19:49:09;4.70;;;4.13;;
63406;SDS011;49543;45.892;10.838;2022-07-03T19:51:34;5.63;;;4.60;;
63406;SDS011;49543;45.892;10.838;2022-07-03T19:54:00;4.80;;;4.30;;
63406;SDS011;49543;45.892;10.838;2022-07-03T19:56:26;4.95;;;4.55;;
63406;SDS011;49543;45.892;10.838;2022-07-03T19:58:51;5.85;;;4.43;;
63406;SDS011;49543;45.892;10.838;2022-07-03T20:01:17;5.22;;;4.72;;
63406;SDS011;49543;45.892;10.838;2022-07-03T20:03:43;5.05;;;4.30;;
63406;SDS011;49543;45.892;10.838;2022-07-03T20:06:08;4.55;;;4.25;;
63406;SDS011;49543;45.892;10.838;2022-07-03T20:08:34;5.22;;;4.82;;
63406;SDS011;49543;45.892;10.838;2022-07-03T20:11:01;5.45;;;4.57;;
63406;SDS011;49543;45.892;10.838;2022-07-03T20:13:28;5.07;;;4.53;;
63406;SDS011;49543;45.892;10.838;2022-07-03T20:15:53;5.35;;;4.68;;
63406;SDS011;49543;45.892;10.838;2022-07-03T20:18:19;5.10;;;4.70;;
63406;SDS011;49543;45.892;10.838;2022-07-03T20:20:44;5.13;;;4.63;;
63406;SDS011;49543;45.892;10.838;2022-07-03T20:23:10;5.22;;;4.75;;
63406;SDS011;49543;45.892;10.838;2022-07-03T20:25:36;5.75;;;5.07;;
63406;SDS011;49543;45.892;10.838;2022-07-03T20:28:06;6.78;;;4.60;;
63406;SDS011;49543;45.892;10.838;2022-07-03T20:30:33;7.13;;;5.10;;
63406;SDS011;49543;45.892;10.838;2022-07-03T20:32:58;7.20;;;5.13;;
63406;SDS011;49543;45.892;10.838;2022-07-03T20:35:25;5.00;;;4.60;;
63406;SDS011;49543;45.892;10.838;2022-07-03T20:37:52;5.20;;;4.70;;
63406;SDS011;49543;45.892;10.838;2022-07-03T20:40:18;4.75;;;4.35;;
63406;SDS011;49543;45.892;10.838;2022-07-03T20:42:44;6.43;;;4.95;;
63406;SDS011;49543;45.892;10.838;2022-07-03T20:45:10;5.00;;;4.65;;
63406;SDS011;49543;45.892;10.838;2022-07-03T20:47:36;7.88;;;5.13;;
63406;SDS011;49543;45.892;10.838;2022-07-03T20:50:02;6.63;;;6.03;;
63406;SDS011;49543;45.892;10.838;2022-07-03T20:52:28;5.18;;;4.68;;
63406;SDS011;49543;45.892;10.838;2022-07-03T20:54:54;5.32;;;4.80;;
63406;SDS011;49543;45.892;10.838;2022-07-03T20:57:19;6.80;;;6.10;;
63406;SDS011;49543;45.892;10.838;2022-07-03T20:59:45;4.78;;;4.38;;
63406;SDS011;49543;45.892;10.838;2022-07-03T21:02:11;8.23;;;5.47;;
63406;SDS011;49543;45.892;10.838;2022-07-03T21:04:37;5.53;;;5.03;;
63406;SDS011;49543;45.892;10.838;2022-07-03T21:07:03;5.43;;;4.93;;
63406;SDS011;49543;45.892;10.838;2022-07-03T21:09:29;5.57;;;5.10;;
63406;SDS011;49543;45.892;10.838;2022-07-03T21:11:56;6.60;;;5.95;;
63406;SDS011;49543;45.892;10.838;2022-07-03T21:14:22;5.75;;;5.25;;
63406;SDS011;49543;45.892;10.838;2022-07-03T21:16:50;5.57;;;5.18;;
63406;SDS011;49543;45.892;10.838;2022-07-03T21:19:18;5.10;;;4.70;;
63406;SDS011;49543;45.892;10.838;2022-07-03T21:21:44;5.70;;;5.20;;
